createdAt,value
2018-07-16T00:02:00.288Z,5.72
2018-07-16T00:04:33.643Z,6.28
2018-07-16T00:07:07.085Z,5.87
2018-07-16T00:09:40.526Z,5.97
2018-07-16T00:12:13.919Z,6.33
2018-07-16T00:14:47.641Z,5.90
2018-07-16T00:17:21.038Z,5.87
2018-07-16T00:19:54.431Z,5.50
2018-07-16T00:22:27.831Z,5.80
2018-07-16T00:25:01.245Z,5.72
2018-07-16T00:27:34.673Z,5.87
2018-07-16T00:30:08.080Z,6.03
2018-07-16T00:32:41.475Z,5.87
2018-07-16T00:35:14.826Z,5.95
2018-07-16T00:37:48.213Z,5.83
2018-07-16T00:40:21.605Z,5.83
2018-07-16T00:42:55.030Z,6.08
2018-07-16T00:45:28.387Z,5.90
2018-07-16T00:48:01.787Z,5.85
2018-07-16T00:50:35.140Z,6.20
2018-07-16T00:53:08.562Z,5.85
2018-07-16T00:55:42.019Z,6.22
2018-07-16T00:58:15.338Z,5.80
2018-07-16T01:00:48.721Z,6.50
2018-07-16T01:03:22.135Z,6.72
2018-07-16T01:05:55.537Z,5.85
2018-07-16T01:08:28.917Z,6.42
2018-07-16T01:11:02.272Z,5.95
2018-07-16T01:13:35.655Z,6.35
2018-07-16T01:16:09.018Z,6.42
2018-07-16T01:18:42.413Z,6.22
2018-07-16T01:21:15.856Z,5.92
2018-07-16T01:23:49.245Z,6.00
2018-07-16T01:26:22.653Z,6.33
2018-07-16T01:28:56.015Z,6.47
2018-07-16T01:31:29.417Z,7.17
2018-07-16T01:34:02.795Z,6.22
2018-07-16T01:36:36.159Z,6.37
2018-07-16T01:39:09.568Z,6.35
2018-07-16T01:41:42.944Z,6.80
2018-07-16T01:44:16.320Z,6.22
2018-07-16T01:46:49.712Z,6.00
2018-07-16T01:49:23.100Z,6.05
2018-07-16T01:51:56.459Z,6.15
2018-07-16T01:54:29.835Z,6.00
2018-07-16T01:57:03.200Z,6.97
2018-07-16T01:59:36.637Z,6.50
2018-07-16T02:02:09.994Z,5.50
2018-07-16T02:04:43.374Z,6.17
2018-07-16T02:07:16.725Z,5.83
2018-07-16T02:09:50.149Z,5.97
2018-07-16T02:12:23.573Z,5.78
2018-07-16T02:14:56.988Z,6.03
2018-07-16T02:17:30.386Z,6.20
2018-07-16T02:20:06.255Z,6.25
2018-07-16T02:22:39.615Z,6.20
2018-07-16T02:25:13.020Z,5.65
2018-07-16T02:27:46.404Z,6.10
2018-07-16T02:30:19.816Z,6.50
2018-07-16T02:32:53.249Z,6.65
2018-07-16T02:35:26.661Z,6.80
2018-07-16T02:38:00.053Z,6.87
2018-07-16T02:40:33.566Z,6.90
2018-07-16T02:43:06.936Z,6.83
2018-07-16T02:45:40.337Z,6.92
2018-07-16T02:48:13.705Z,7.22
2018-07-16T02:50:47.095Z,7.67
2018-07-16T02:53:20.454Z,6.80
2018-07-16T02:55:53.874Z,6.53
2018-07-16T02:58:27.214Z,7.22
2018-07-16T03:01:00.655Z,6.53
2018-07-16T03:03:34.031Z,6.55
2018-07-16T03:06:07.416Z,6.12
2018-07-16T03:08:40.772Z,6.92
2018-07-16T03:11:14.176Z,6.55
2018-07-16T03:13:47.593Z,6.62
2018-07-16T03:16:20.993Z,7.90
2018-07-16T03:18:59.026Z,6.93
2018-07-16T03:21:32.426Z,6.03
2018-07-16T03:24:05.860Z,6.72
2018-07-16T03:26:39.268Z,6.50
2018-07-16T03:29:12.682Z,6.40
2018-07-16T03:31:46.068Z,7.42
2018-07-16T03:34:19.455Z,6.57
2018-07-16T03:36:52.868Z,7.37
2018-07-16T03:39:26.272Z,6.35
2018-07-16T03:41:59.846Z,6.17
2018-07-16T03:44:33.280Z,5.87
2018-07-16T03:47:06.700Z,6.12
2018-07-16T03:49:40.156Z,6.60
2018-07-16T03:52:13.523Z,5.80
2018-07-16T03:54:46.934Z,6.30
2018-07-16T03:57:20.344Z,5.58
2018-07-16T03:59:53.736Z,5.55
2018-07-16T04:02:27.191Z,5.80
2018-07-16T04:05:00.620Z,5.97
2018-07-16T04:07:34.031Z,5.60
2018-07-16T04:10:07.418Z,6.40
2018-07-16T04:12:40.811Z,5.97
2018-07-16T04:15:14.231Z,5.65
2018-07-16T04:17:47.595Z,6.80
2018-07-16T04:20:20.990Z,5.75
2018-07-16T04:22:54.360Z,5.80
2018-07-16T04:25:27.738Z,5.67
2018-07-16T04:28:01.096Z,5.87
2018-07-16T04:30:34.497Z,5.92
2018-07-16T04:33:08.007Z,5.40
2018-07-16T04:35:41.400Z,6.05
2018-07-16T04:38:14.772Z,6.08
2018-07-16T04:40:48.177Z,5.83
2018-07-16T04:43:21.530Z,5.80
2018-07-16T04:45:54.962Z,5.30
2018-07-16T04:48:28.323Z,5.85
2018-07-16T04:51:02.012Z,5.37
2018-07-16T04:53:35.367Z,5.75
2018-07-16T04:56:08.860Z,5.60
2018-07-16T04:58:42.225Z,5.45
2018-07-16T05:01:15.609Z,5.72
2018-07-16T05:03:48.977Z,5.33
2018-07-16T05:06:22.412Z,6.17
2018-07-16T05:08:55.791Z,5.60
2018-07-16T05:11:29.194Z,5.12
2018-07-16T05:14:02.593Z,5.47
2018-07-16T05:16:36.024Z,5.67
2018-07-16T05:19:09.392Z,6.37
2018-07-16T05:21:42.790Z,6.33
2018-07-16T05:24:16.176Z,6.70
2018-07-16T05:26:49.577Z,6.50
2018-07-16T05:29:23.000Z,6.70
2018-07-16T05:31:56.580Z,7.80
2018-07-16T05:34:29.798Z,6.35
2018-07-16T05:37:03.251Z,7.92
2018-07-16T05:39:36.607Z,7.55
2018-07-16T05:42:10.124Z,7.47
2018-07-16T05:44:43.658Z,6.85
2018-07-16T05:47:17.068Z,6.28
2018-07-16T05:49:50.472Z,7.03
2018-07-16T05:52:23.940Z,7.62
2018-07-16T05:54:57.312Z,8.15
2018-07-16T05:57:30.739Z,7.90
2018-07-16T06:00:04.204Z,7.78
2018-07-16T06:02:37.607Z,7.85
2018-07-16T06:05:10.992Z,7.25
2018-07-16T06:07:44.382Z,7.72
2018-07-16T06:10:17.766Z,7.50
2018-07-16T06:12:51.170Z,6.67
2018-07-16T06:15:24.596Z,7.22
2018-07-16T06:17:58.004Z,7.08
2018-07-16T06:20:31.360Z,6.80
2018-07-16T06:23:04.804Z,7.72
2018-07-16T06:25:38.365Z,7.65
2018-07-16T06:28:11.842Z,7.58
2018-07-16T06:30:45.286Z,7.78
2018-07-16T06:33:18.752Z,8.30
2018-07-16T06:35:52.164Z,8.50
2018-07-16T06:38:25.866Z,8.58
2018-07-16T06:40:59.371Z,8.18
2018-07-16T06:43:33.049Z,10.78
2018-07-16T06:46:06.504Z,7.87
2018-07-16T06:48:39.907Z,7.28
2018-07-16T06:51:13.307Z,8.43
2018-07-16T06:53:46.739Z,7.40
2018-07-16T06:56:20.132Z,7.92
2018-07-16T06:58:53.539Z,8.10
2018-07-16T07:01:26.955Z,6.92
2018-07-16T07:04:00.448Z,10.60
2018-07-16T07:06:33.888Z,7.42
2018-07-16T07:09:07.316Z,7.75
2018-07-16T07:11:40.787Z,6.85
2018-07-16T07:14:14.193Z,7.12
2018-07-16T07:16:47.874Z,6.75
2018-07-16T07:19:21.448Z,6.72
2018-07-16T07:21:55.433Z,6.17
2018-07-16T07:24:28.878Z,6.87
2018-07-16T07:27:02.406Z,7.45
2018-07-16T07:29:35.760Z,6.95
2018-07-16T07:32:09.203Z,9.28
2018-07-16T07:34:42.605Z,6.33
2018-07-16T07:37:16.010Z,5.87
2018-07-16T07:39:49.424Z,5.45
2018-07-16T07:42:22.863Z,5.35
2018-07-16T07:44:56.774Z,5.35
2018-07-16T07:47:30.229Z,5.12
2018-07-16T07:50:03.750Z,5.25
2018-07-16T07:52:37.178Z,5.83
2018-07-16T07:55:11.001Z,5.22
2018-07-16T07:57:44.052Z,4.70
2018-07-16T08:00:17.489Z,5.47
2018-07-16T08:02:50.936Z,5.22
2018-07-16T08:05:24.380Z,5.45
2018-07-16T08:07:57.784Z,5.05
2018-07-16T08:10:31.223Z,5.47
2018-07-16T08:13:04.655Z,5.25
2018-07-16T08:15:38.138Z,4.40
2018-07-16T08:18:11.606Z,4.40
2018-07-16T08:20:45.022Z,5.53
2018-07-16T08:23:18.475Z,4.25
2018-07-16T08:25:51.918Z,4.70
2018-07-16T08:28:25.365Z,3.75
2018-07-16T08:30:58.875Z,10.15
2018-07-16T08:33:32.453Z,4.40
2018-07-16T08:36:05.885Z,4.62
2018-07-16T08:38:39.446Z,4.65
2018-07-16T08:41:12.938Z,4.22
2018-07-16T08:43:46.475Z,4.17
2018-07-16T08:46:19.964Z,5.65
2018-07-16T08:48:53.320Z,4.03
2018-07-16T08:51:26.751Z,4.55
2018-07-16T08:54:00.298Z,4.90
2018-07-16T08:56:33.678Z,5.47
2018-07-16T08:59:07.176Z,4.10
2018-07-16T09:01:40.554Z,4.00
2018-07-16T09:04:13.957Z,3.92
2018-07-16T09:06:47.341Z,4.05
2018-07-16T09:09:20.743Z,4.30
2018-07-16T09:11:54.153Z,4.25
2018-07-16T09:14:27.603Z,4.47
2018-07-16T09:17:01.080Z,6.35
2018-07-16T09:19:34.434Z,3.87
2018-07-16T09:22:08.391Z,6.30
2018-07-16T09:24:41.787Z,3.50
2018-07-16T09:27:15.207Z,4.42
2018-07-16T09:29:48.632Z,6.50
2018-07-16T09:32:22.038Z,3.75
2018-07-16T09:34:55.500Z,3.72
2018-07-16T09:37:28.910Z,4.37
2018-07-16T09:40:02.319Z,3.50
2018-07-16T09:42:35.729Z,3.50
2018-07-16T09:45:09.191Z,3.47
2018-07-16T09:47:42.571Z,9.73
2018-07-16T09:50:15.985Z,4.05
2018-07-16T09:52:49.391Z,5.95
2018-07-16T09:55:22.824Z,3.50
2018-07-16T09:57:56.801Z,4.67
2018-07-16T10:00:35.540Z,4.37
2018-07-16T10:03:09.376Z,3.90
2018-07-16T10:05:42.751Z,3.60
2018-07-16T10:08:16.187Z,3.60
2018-07-16T10:10:49.580Z,3.45
2018-07-16T10:13:22.985Z,3.67
2018-07-16T10:15:56.409Z,3.62
2018-07-16T10:18:29.807Z,4.42
2018-07-16T10:21:03.220Z,3.47
2018-07-16T10:23:36.661Z,3.85
2018-07-16T10:26:10.056Z,3.80
2018-07-16T10:28:43.484Z,3.77
2018-07-16T10:31:16.913Z,3.30
2018-07-16T10:33:50.442Z,3.50
2018-07-16T10:36:23.803Z,3.10
2018-07-16T10:38:57.215Z,4.08
2018-07-16T10:41:30.593Z,2.95
2018-07-16T10:44:04.051Z,3.22
2018-07-16T10:46:37.553Z,2.90
2018-07-16T10:49:11.060Z,3.58
2018-07-16T10:51:44.440Z,3.60
2018-07-16T10:54:17.888Z,3.85
2018-07-16T10:56:51.320Z,3.50
2018-07-16T10:59:24.772Z,3.72
2018-07-16T11:01:58.261Z,3.52
2018-07-16T11:04:31.667Z,3.42
2018-07-16T11:07:05.195Z,3.70
2018-07-16T11:09:38.590Z,3.35
2018-07-16T11:12:11.975Z,3.67
2018-07-16T11:14:45.363Z,3.15
2018-07-16T11:17:18.749Z,3.70
2018-07-16T11:19:52.157Z,3.40
2018-07-16T11:22:25.536Z,3.45
2018-07-16T11:24:58.926Z,3.40
2018-07-16T11:27:32.331Z,2.80
2018-07-16T11:30:06.995Z,3.55
2018-07-16T11:32:40.348Z,3.42
2018-07-16T11:35:13.738Z,3.20
2018-07-16T11:37:47.126Z,3.50
2018-07-16T11:40:20.509Z,3.62
2018-07-16T11:43:00.419Z,7.62
2018-07-16T11:45:33.815Z,3.17
2018-07-16T11:48:07.185Z,3.45
2018-07-16T11:50:40.584Z,2.98
2018-07-16T11:53:13.944Z,3.55
2018-07-16T11:55:47.338Z,3.10
2018-07-16T11:58:21.344Z,4.28
2018-07-16T12:00:54.788Z,3.12
2018-07-16T12:03:28.232Z,3.10
2018-07-16T12:06:05.046Z,3.33
2018-07-16T12:08:38.424Z,3.33
2018-07-16T12:11:11.793Z,3.42
2018-07-16T12:13:45.148Z,3.20
2018-07-16T12:16:18.578Z,3.08
2018-07-16T12:18:51.968Z,3.20
2018-07-16T12:21:25.351Z,3.40
2018-07-16T12:23:58.731Z,3.40
2018-07-16T12:26:32.153Z,3.55
2018-07-16T12:29:05.557Z,3.70
2018-07-16T12:31:38.972Z,3.10
2018-07-16T12:34:12.341Z,3.62
2018-07-16T12:36:45.732Z,3.30
2018-07-16T12:39:19.087Z,3.22
2018-07-16T12:41:52.578Z,3.47
2018-07-16T12:44:25.881Z,3.60
2018-07-16T12:46:59.299Z,7.37
2018-07-16T12:49:32.711Z,3.10
2018-07-16T12:52:06.251Z,3.10
2018-07-16T12:54:39.738Z,3.35
2018-07-16T12:57:13.165Z,4.50
2018-07-16T12:59:46.724Z,3.17
2018-07-16T13:02:20.100Z,3.33
2018-07-16T13:04:53.525Z,3.17
2018-07-16T13:07:26.882Z,3.15
2018-07-16T13:10:00.275Z,3.30
2018-07-16T13:12:33.756Z,3.22
2018-07-16T13:15:07.211Z,3.27
2018-07-16T13:17:40.597Z,3.75
2018-07-16T13:20:13.999Z,3.20
2018-07-16T13:22:47.356Z,2.80
2018-07-16T13:25:20.755Z,2.75
2018-07-16T13:27:54.170Z,3.27
2018-07-16T13:30:27.611Z,3.00
2018-07-16T13:33:01.010Z,2.95
2018-07-16T13:35:34.456Z,2.98
2018-07-16T13:38:07.954Z,3.17
2018-07-16T13:40:41.420Z,3.27
2018-07-16T13:43:14.824Z,2.80
2018-07-16T13:45:48.229Z,2.92
2018-07-16T13:48:21.609Z,5.15
2018-07-16T13:50:54.991Z,2.85
2018-07-16T13:53:28.465Z,3.05
2018-07-16T13:56:01.889Z,3.08
2018-07-16T13:58:35.266Z,3.08
2018-07-16T14:01:08.672Z,2.87
2018-07-16T14:03:42.079Z,2.90
2018-07-16T14:06:15.496Z,2.65
2018-07-16T14:08:48.919Z,2.67
2018-07-16T14:11:22.319Z,2.95
2018-07-16T14:13:55.740Z,3.33
2018-07-16T14:16:29.252Z,3.00
2018-07-16T14:19:02.665Z,2.92
2018-07-16T14:21:36.558Z,3.15
2018-07-16T14:24:10.005Z,2.70
2018-07-16T14:26:43.418Z,2.80
2018-07-16T14:29:16.823Z,2.58
2018-07-16T14:31:50.272Z,3.80
2018-07-16T14:34:23.699Z,3.35
2018-07-16T14:36:57.077Z,3.08
2018-07-16T14:39:30.538Z,2.70
2018-07-16T14:42:04.056Z,3.20
2018-07-16T14:44:37.625Z,2.45
2018-07-16T14:47:11.041Z,2.75
2018-07-16T14:49:44.488Z,2.52
2018-07-16T14:52:18.116Z,3.62
2018-07-16T14:54:51.487Z,3.10
2018-07-16T14:57:25.068Z,2.55
2018-07-16T14:59:58.539Z,2.60
2018-07-16T15:02:32.012Z,3.15
2018-07-16T15:05:05.834Z,2.47
2018-07-16T15:07:39.292Z,3.77
2018-07-16T15:10:12.736Z,2.75
2018-07-16T15:12:46.165Z,2.27
2018-07-16T15:15:19.537Z,2.30
2018-07-16T15:17:52.971Z,2.60
2018-07-16T15:20:26.377Z,2.55
2018-07-16T15:22:59.812Z,2.40
2018-07-16T15:25:33.186Z,2.37
2018-07-16T15:28:06.680Z,3.75
2018-07-16T15:30:40.087Z,2.33
2018-07-16T15:33:13.487Z,2.15
2018-07-16T15:35:46.919Z,2.50
2018-07-16T15:38:20.317Z,2.40
2018-07-16T15:40:53.720Z,2.95
2018-07-16T15:43:27.186Z,2.70
2018-07-16T15:46:00.596Z,2.42
2018-07-16T15:48:34.082Z,2.65
2018-07-16T15:51:07.573Z,4.55
2018-07-16T15:53:40.995Z,2.45
2018-07-16T15:56:14.433Z,2.50
2018-07-16T15:58:47.866Z,2.37
2018-07-16T16:01:22.147Z,2.60
2018-07-16T16:03:55.598Z,2.50
2018-07-16T16:06:29.015Z,2.70
2018-07-16T16:09:02.497Z,2.20
2018-07-16T16:11:35.855Z,2.50
2018-07-16T16:14:09.300Z,4.37
2018-07-16T16:16:42.747Z,2.70
2018-07-16T16:19:16.139Z,2.45
2018-07-16T16:21:49.574Z,2.55
2018-07-16T16:24:22.956Z,2.27
2018-07-16T16:26:56.431Z,2.40
2018-07-16T16:29:29.844Z,3.00
2018-07-16T16:32:03.260Z,2.75
2018-07-16T16:34:36.755Z,2.72
2018-07-16T16:37:10.224Z,2.37
2018-07-16T16:39:43.632Z,2.62
2018-07-16T16:42:17.113Z,2.40
2018-07-16T16:44:50.812Z,2.90
2018-07-16T16:47:24.332Z,4.47
2018-07-16T16:49:57.720Z,4.30
2018-07-16T16:52:32.301Z,2.47
2018-07-16T16:55:05.754Z,2.47
2018-07-16T16:57:39.160Z,2.85
2018-07-16T17:00:13.237Z,3.75
2018-07-16T17:02:46.655Z,2.98
2018-07-16T17:05:21.064Z,4.15
2018-07-16T17:07:54.627Z,2.83
2018-07-16T17:10:28.115Z,2.20
2018-07-16T17:13:02.593Z,4.35
2018-07-16T17:15:36.016Z,2.80
2018-07-16T17:18:10.197Z,2.40
2018-07-16T17:20:43.627Z,2.50
2018-07-16T17:23:17.087Z,2.50
2018-07-16T17:25:51.542Z,3.37
2018-07-16T17:28:25.012Z,2.42
2018-07-16T17:30:58.387Z,2.50
2018-07-16T17:33:31.817Z,2.67
2018-07-16T17:36:05.251Z,3.90
2018-07-16T17:38:38.669Z,2.67
2018-07-16T17:41:12.178Z,2.20
2018-07-16T17:43:45.663Z,2.65
2018-07-16T17:46:19.076Z,2.37
2018-07-16T17:48:53.104Z,2.52
2018-07-16T17:51:26.604Z,3.02
2018-07-16T17:54:00.025Z,5.45
2018-07-16T17:56:33.411Z,2.45
2018-07-16T17:59:07.243Z,2.67
2018-07-16T18:01:40.747Z,2.80
2018-07-16T18:04:14.227Z,3.87
2018-07-16T18:06:47.594Z,3.25
2018-07-16T18:09:21.027Z,3.12
2018-07-16T18:11:54.414Z,2.67
2018-07-16T18:14:27.796Z,3.45
2018-07-16T18:17:01.179Z,2.70
2018-07-16T18:19:34.687Z,2.70
2018-07-16T18:22:08.100Z,3.52
2018-07-16T18:24:41.516Z,4.92
2018-07-16T18:27:14.993Z,5.08
2018-07-16T18:29:48.506Z,6.30
2018-07-16T18:32:21.873Z,2.87
2018-07-16T18:34:55.279Z,2.40
2018-07-16T18:37:28.812Z,2.55
2018-07-16T18:40:02.732Z,3.25
2018-07-16T18:42:36.130Z,3.37
2018-07-16T18:45:09.775Z,5.35
2018-07-16T18:47:43.379Z,2.85
2018-07-16T18:50:16.841Z,3.40
2018-07-16T18:52:50.299Z,3.15
2018-07-16T18:55:23.893Z,3.42
2018-07-16T18:57:57.510Z,3.60
2018-07-16T19:00:30.987Z,2.83
2018-07-16T19:03:04.466Z,3.15
2018-07-16T19:05:38.454Z,3.98
2018-07-16T19:08:11.890Z,2.95
2018-07-16T19:10:45.299Z,3.72
2018-07-16T19:13:18.999Z,2.92
2018-07-16T19:15:52.384Z,4.95
2018-07-16T19:18:25.893Z,3.12
2018-07-16T19:21:00.960Z,2.80
2018-07-16T19:23:34.540Z,3.00
2018-07-16T19:26:08.088Z,2.92
2018-07-16T19:28:41.830Z,2.83
2018-07-16T19:31:15.151Z,2.85
2018-07-16T19:33:48.575Z,2.98
2018-07-16T19:36:22.072Z,5.17
2018-07-16T19:38:55.638Z,3.22
2018-07-16T19:41:28.994Z,3.50
2018-07-16T19:44:02.474Z,3.20
2018-07-16T19:46:35.912Z,3.37
2018-07-16T19:49:09.347Z,3.02
2018-07-16T19:51:42.736Z,3.00
2018-07-16T19:54:16.195Z,4.15
2018-07-16T19:56:49.591Z,3.17
2018-07-16T19:59:22.993Z,2.95
2018-07-16T20:01:56.426Z,3.50
2018-07-16T20:04:29.909Z,3.25
2018-07-16T20:07:03.281Z,4.10
2018-07-16T20:09:36.778Z,3.27
2018-07-16T20:12:18.430Z,3.45
2018-07-16T20:14:51.872Z,3.00
2018-07-16T20:17:25.242Z,3.87
2018-07-16T20:19:59.265Z,3.05
2018-07-16T20:22:32.765Z,3.65
2018-07-16T20:25:07.016Z,2.80
2018-07-16T20:27:40.392Z,3.55
2018-07-16T20:30:13.851Z,3.62
2018-07-16T20:32:47.266Z,3.90
2018-07-16T20:35:20.661Z,3.85
2018-07-16T20:37:54.089Z,4.37
2018-07-16T20:40:27.487Z,3.45
2018-07-16T20:43:00.904Z,3.67
2018-07-16T20:45:34.312Z,3.77
2018-07-16T20:48:07.840Z,3.42
2018-07-16T20:50:41.247Z,3.47
2018-07-16T20:53:14.658Z,3.50
2018-07-16T20:55:48.095Z,3.35
2018-07-16T20:58:21.508Z,3.83
2018-07-16T21:00:54.958Z,3.85
2018-07-16T21:03:28.356Z,3.87
2018-07-16T21:06:01.777Z,3.37
2018-07-16T21:08:35.134Z,3.80
2018-07-16T21:11:08.616Z,3.45
2018-07-16T21:13:42.003Z,4.00
2018-07-16T21:16:15.431Z,4.03
2018-07-16T21:18:48.822Z,3.52
2018-07-16T21:21:22.322Z,3.98
2018-07-16T21:23:55.747Z,3.45
2018-07-16T21:26:29.157Z,3.52
2018-07-16T21:29:02.555Z,3.33
2018-07-16T21:31:35.950Z,3.60
2018-07-16T21:34:09.381Z,3.40
2018-07-16T21:36:42.782Z,3.83
2018-07-16T21:39:16.179Z,3.92
2018-07-16T21:41:49.579Z,3.85
2018-07-16T21:44:22.947Z,3.40
2018-07-16T21:46:56.356Z,3.80
2018-07-16T21:49:29.778Z,3.83
2018-07-16T21:52:03.190Z,3.52
2018-07-16T21:54:36.603Z,3.62
2018-07-16T21:57:10.020Z,9.20
2018-07-16T21:59:43.461Z,4.45
2018-07-16T22:02:16.839Z,3.83
2018-07-16T22:04:50.226Z,3.55
2018-07-16T22:07:23.627Z,3.85
2018-07-16T22:09:57.020Z,3.15
2018-07-16T22:12:30.383Z,6.65
2018-07-16T22:15:03.810Z,4.15
2018-07-16T22:17:37.188Z,4.35
2018-07-16T22:20:10.632Z,4.50
2018-07-16T22:22:44.025Z,3.75
2018-07-16T22:25:17.445Z,4.00
2018-07-16T22:27:50.842Z,6.08
2018-07-16T22:30:24.274Z,3.70
2018-07-16T22:32:57.634Z,4.00
2018-07-16T22:35:32.936Z,4.30
2018-07-16T22:38:06.349Z,4.15
2018-07-16T22:40:39.773Z,5.12
2018-07-16T22:43:13.168Z,3.80
2018-07-16T22:45:46.608Z,4.45
2018-07-16T22:48:19.974Z,5.22
2018-07-16T22:50:53.720Z,3.98
2018-07-16T22:53:27.099Z,3.98
2018-07-16T22:56:01.187Z,6.20
2018-07-16T22:58:34.588Z,4.20
2018-07-16T23:01:08.168Z,4.20
2018-07-16T23:03:41.558Z,4.00
2018-07-16T23:06:14.969Z,3.85
2018-07-16T23:08:48.353Z,3.87
2018-07-16T23:11:21.768Z,4.40
2018-07-16T23:13:55.163Z,4.25
2018-07-16T23:16:28.559Z,4.30
2018-07-16T23:19:01.951Z,5.42
2018-07-16T23:21:35.366Z,4.67
2018-07-16T23:24:08.807Z,4.03
2018-07-16T23:26:42.255Z,4.33
2018-07-16T23:29:15.639Z,4.33
2018-07-16T23:31:49.053Z,4.12
2018-07-16T23:34:22.458Z,4.60
2018-07-16T23:36:55.879Z,6.22
2018-07-16T23:39:29.276Z,5.00
2018-07-16T23:42:02.695Z,4.35
2018-07-16T23:44:36.082Z,4.60
2018-07-16T23:47:09.576Z,3.60
2018-07-16T23:49:42.981Z,5.00
2018-07-16T23:52:16.468Z,4.53
2018-07-16T23:54:49.836Z,4.70
2018-07-16T23:57:23.281Z,4.87
2018-07-16T23:59:56.707Z,4.67
